createdAt,value
2019-02-28T06:39:04.406Z,27.07
2019-02-28T06:44:30.495Z,30.10
2019-02-28T06:49:56.290Z,28.57
2019-02-28T06:52:36.609Z,28.43
2019-02-28T06:55:23.108Z,23.77
2019-02-28T07:00:50.526Z,25.43
2019-02-28T07:03:30.952Z,30.87
2019-02-28T07:06:01.211Z,27.73
2019-02-28T07:08:30.057Z,39.87
2019-02-28T07:10:58.734Z,33.93
2019-02-28T07:13:27.400Z,35.43
2019-02-28T07:15:59.109Z,35.07
2019-02-28T07:18:26.573Z,36.93
2019-02-28T07:20:55.314Z,34.10
2019-02-28T07:23:26.725Z,33.37
2019-02-28T07:25:54.394Z,31.90
2019-02-28T07:28:23.066Z,31.27
2019-02-28T07:30:51.818Z,32.27
2019-02-28T07:33:20.490Z,33.03
2019-02-28T07:35:49.175Z,38.27
2019-02-28T07:38:17.842Z,33.40
2019-02-28T07:40:49.591Z,36.30
2019-02-28T07:43:16.925Z,36.23
2019-02-28T07:45:45.597Z,33.97
2019-02-28T07:48:14.373Z,37.57
2019-02-28T07:50:43.432Z,42.53
2019-02-28T07:53:13.441Z,37.87
2019-02-28T07:55:42.126Z,36.40
2019-02-28T07:58:10.798Z,35.27
2019-02-28T08:00:39.473Z,37.80
2019-02-28T08:03:11.304Z,41.50
2019-02-28T08:05:39.065Z,39.77
2019-02-28T08:08:07.817Z,43.17
2019-02-28T08:10:37.314Z,44.97
2019-02-28T08:13:06.065Z,44.10
2019-02-28T08:15:34.813Z,49.43
2019-02-28T08:18:05.687Z,42.83
2019-02-28T08:20:34.806Z,48.57
2019-02-28T08:23:03.679Z,42.73
2019-02-28T08:25:32.353Z,49.10
2019-02-28T08:28:01.025Z,44.57
2019-02-28T08:30:29.801Z,45.77
2019-02-28T08:32:58.460Z,46.53
2019-02-28T08:35:27.205Z,52.20
2019-02-28T08:37:57.253Z,43.53
2019-02-28T08:40:26.935Z,46.80
2019-02-28T08:43:15.142Z,45.57
2019-02-28T08:45:43.838Z,41.53
2019-02-28T08:48:12.798Z,43.33
2019-02-28T08:50:41.668Z,45.90
2019-02-28T08:53:12.462Z,48.17
2019-02-28T08:55:43.654Z,50.40
2019-02-28T08:58:11.226Z,46.97
2019-02-28T09:00:39.905Z,46.63
2019-02-28T09:03:08.593Z,47.83
2019-02-28T09:05:37.270Z,48.03
2019-02-28T09:08:06.014Z,45.70
2019-02-28T09:10:34.693Z,45.00
2019-02-28T09:13:07.578Z,51.23
2019-02-28T09:15:33.879Z,49.23
2019-02-28T09:18:02.548Z,47.10
2019-02-28T09:20:31.229Z,51.90
2019-02-28T09:23:02.382Z,49.47
2019-02-28T09:25:30.309Z,50.93
2019-02-28T09:27:59.061Z,51.40
2019-02-28T09:30:33.266Z,54.33
2019-02-28T09:33:02.015Z,51.50
2019-02-28T09:35:30.694Z,48.00
2019-02-28T09:38:00.294Z,49.70
2019-02-28T09:40:30.580Z,49.33
2019-02-28T09:42:59.431Z,53.63
2019-02-28T09:45:28.319Z,54.53
2019-02-28T09:48:00.812Z,60.13
2019-02-28T09:50:27.474Z,60.67
2019-02-28T09:52:56.141Z,58.27
2019-02-28T09:55:24.834Z,53.07
2019-02-28T09:57:54.843Z,52.73
2019-02-28T10:00:23.937Z,61.07
2019-02-28T10:02:53.130Z,54.93
2019-02-28T10:05:21.961Z,55.07
2019-02-28T10:07:50.914Z,57.70
2019-02-28T10:10:21.765Z,55.97
2019-02-28T10:12:50.760Z,57.40
2019-02-28T10:15:20.334Z,56.00
2019-02-28T10:17:49.173Z,53.50
2019-02-28T10:20:20.161Z,56.03
2019-02-28T10:22:48.837Z,50.47
2019-02-28T10:25:17.773Z,58.47
2019-02-28T10:27:46.457Z,52.97
2019-02-28T10:30:28.348Z,58.60
2019-02-28T10:32:50.023Z,57.47
2019-02-28T10:35:18.702Z,55.50
2019-02-28T10:37:47.470Z,54.23
2019-02-28T10:40:20.825Z,51.73
2019-02-28T10:42:49.617Z,54.47
2019-02-28T10:45:18.370Z,52.67
2019-02-28T10:47:47.054Z,57.10
2019-02-28T10:50:17.789Z,54.33
2019-02-28T10:52:46.470Z,50.80
2019-02-28T10:55:16.222Z,52.20
2019-02-28T10:57:45.265Z,54.07
2019-02-28T11:00:17.526Z,52.20
2019-02-28T11:02:46.581Z,53.97
2019-02-28T11:05:19.585Z,53.50
2019-02-28T11:07:49.098Z,48.90
2019-02-28T11:10:18.714Z,52.93
2019-02-28T11:12:47.466Z,52.37
2019-02-28T11:15:20.207Z,51.70
2019-02-28T11:17:48.885Z,53.23
2019-02-28T11:20:22.161Z,49.40
2019-02-28T11:22:48.029Z,51.87
2019-02-28T11:25:17.477Z,53.47
2019-02-28T11:27:46.224Z,64.07
2019-02-28T11:30:16.123Z,57.37
2019-02-28T11:32:44.973Z,56.23
2019-02-28T11:35:13.987Z,53.93
2019-02-28T11:37:46.013Z,56.10
2019-02-28T11:40:13.232Z,58.03
2019-02-28T11:42:42.058Z,59.87
2019-02-28T11:45:14.021Z,48.27
2019-02-28T11:47:43.428Z,54.03
2019-02-28T11:50:31.560Z,50.07
2019-02-28T11:53:04.955Z,55.97
2019-02-28T11:55:30.663Z,53.40
2019-02-28T11:57:59.653Z,50.57
2019-02-28T12:00:32.533Z,54.40
2019-02-28T12:03:00.904Z,50.13
2019-02-28T12:05:29.870Z,51.90
2019-02-28T12:07:58.541Z,52.63
2019-02-28T12:10:27.875Z,47.63
2019-02-28T12:12:56.820Z,51.63
2019-02-28T12:15:26.593Z,48.53
2019-02-28T12:17:55.355Z,51.80
2019-02-28T12:20:26.548Z,51.50
2019-02-28T12:22:54.418Z,56.70
2019-02-28T12:25:23.164Z,55.10
2019-02-28T12:27:51.921Z,55.80
2019-02-28T12:30:25.110Z,56.47
2019-02-28T12:32:52.924Z,53.87
2019-02-28T12:35:21.669Z,57.57
2019-02-28T12:37:50.445Z,51.07
2019-02-28T12:40:23.133Z,54.37
2019-02-28T12:42:51.890Z,52.80
2019-02-28T12:45:24.440Z,49.97
2019-02-28T12:47:53.936Z,52.83
2019-02-28T12:50:22.677Z,62.20
2019-02-28T12:52:51.605Z,55.10
2019-02-28T12:55:20.441Z,64.63
2019-02-28T12:57:49.117Z,52.47
2019-02-28T13:00:23.266Z,56.07
2019-02-28T13:02:50.830Z,54.53
2019-02-28T13:05:19.515Z,45.77
2019-02-28T13:07:48.620Z,49.13
2019-02-28T13:10:18.577Z,53.70
2019-02-28T13:12:48.934Z,52.13
2019-02-28T13:15:17.956Z,50.43
2019-02-28T13:17:46.705Z,53.83
2019-02-28T13:20:17.208Z,57.03
2019-02-28T13:22:45.901Z,50.97
2019-02-28T13:25:14.648Z,49.07
2019-02-28T13:27:45.276Z,56.20
2019-02-28T13:30:16.220Z,49.70
2019-02-28T13:32:44.973Z,54.53
2019-02-28T13:35:15.874Z,52.97
2019-02-28T13:37:44.908Z,60.00
2019-02-28T13:40:14.113Z,52.23
2019-02-28T13:42:43.040Z,51.50
2019-02-28T13:45:14.722Z,53.23
2019-02-28T13:47:46.194Z,52.30
2019-02-28T13:50:17.308Z,51.83
2019-02-28T13:52:46.185Z,55.20
2019-02-28T13:55:18.936Z,55.40
2019-02-28T13:57:46.864Z,54.93
2019-02-28T14:00:27.884Z,49.57
2019-02-28T14:02:58.506Z,62.07
2019-02-28T14:05:27.445Z,58.53
2019-02-28T14:07:56.135Z,58.43
2019-02-28T14:10:24.805Z,52.13
2019-02-28T14:12:57.023Z,52.90
2019-02-28T14:15:35.993Z,55.50
2019-02-28T14:18:07.465Z,55.37
2019-02-28T14:20:35.593Z,58.17
2019-02-28T14:23:04.501Z,54.90
2019-02-28T14:25:33.161Z,56.37
2019-02-28T14:28:01.845Z,59.00
2019-02-28T14:30:30.594Z,56.40
2019-02-28T14:32:59.278Z,60.23
2019-02-28T14:35:34.055Z,75.07
2019-02-28T14:37:58.768Z,61.47
2019-02-28T14:40:27.509Z,55.53
2019-02-28T14:42:56.189Z,58.60
2019-02-28T14:45:24.965Z,51.63
2019-02-28T14:47:56.965Z,59.93
2019-02-28T14:50:24.377Z,57.17
2019-02-28T14:52:54.001Z,48.20
2019-02-28T14:55:22.820Z,61.53
2019-02-28T14:57:51.649Z,52.03
2019-02-28T15:00:24.489Z,51.80
2019-02-28T15:02:53.242Z,50.27
2019-02-28T15:05:21.922Z,53.80
2019-02-28T15:07:50.669Z,50.53
2019-02-28T15:10:19.641Z,48.57
2019-02-28T15:12:48.613Z,48.33
2019-02-28T15:15:18.988Z,49.07
2019-02-28T15:17:48.205Z,54.20
2019-02-28T15:20:17.313Z,48.27
2019-02-28T15:22:46.169Z,54.73
2019-02-28T15:25:18.569Z,51.47
2019-02-28T15:27:46.409Z,51.23
2019-02-28T15:30:17.389Z,58.07
2019-02-28T15:32:46.057Z,61.13
2019-02-28T15:35:16.069Z,55.97
2019-02-28T15:37:44.926Z,62.63
2019-02-28T15:40:16.411Z,54.77
2019-02-28T15:42:45.144Z,56.43
2019-02-28T15:45:14.006Z,56.27
2019-02-28T15:47:42.752Z,56.17
2019-02-28T15:50:13.597Z,52.73
2019-02-28T15:52:44.073Z,58.87
2019-02-28T15:55:13.839Z,62.57
2019-02-28T15:57:42.599Z,63.00
2019-02-28T16:00:18.069Z,62.87
2019-02-28T16:02:46.889Z,52.53
2019-02-28T16:05:15.673Z,60.57
2019-02-28T16:07:44.421Z,59.90
2019-02-28T16:10:16.001Z,62.63
2019-02-28T16:12:46.605Z,60.60
2019-02-28T16:15:15.666Z,66.23
2019-02-28T16:17:44.629Z,60.10
2019-02-28T16:20:13.515Z,69.40
2019-02-28T16:22:42.285Z,63.20
2019-02-28T16:25:14.786Z,68.50
2019-02-28T16:27:44.456Z,59.70
2019-02-28T16:30:14.026Z,64.03
2019-02-28T16:32:45.526Z,59.77
2019-02-28T16:35:14.608Z,67.53
2019-02-28T16:37:43.640Z,72.33
2019-02-28T16:40:13.773Z,63.73
2019-02-28T16:42:43.384Z,69.23
2019-02-28T16:45:20.672Z,72.67
2019-02-28T16:47:49.345Z,66.33
2019-02-28T16:50:18.755Z,66.47
2019-02-28T16:52:48.438Z,68.33
2019-02-28T16:55:17.084Z,65.00
2019-02-28T16:57:47.120Z,74.97
2019-02-28T17:00:17.180Z,70.43
2019-02-28T17:02:45.879Z,74.43
2019-02-28T17:05:14.603Z,71.67
2019-02-28T17:07:43.574Z,83.50
2019-02-28T17:10:15.242Z,71.80
2019-02-28T17:13:06.098Z,72.67
2019-02-28T17:15:49.885Z,76.60
2019-02-28T17:18:21.571Z,72.33
2019-02-28T17:20:50.545Z,73.63
2019-02-28T17:23:19.214Z,74.50
2019-02-28T17:25:47.900Z,76.80
2019-02-28T17:28:25.362Z,70.00
2019-02-28T17:31:12.492Z,75.83
2019-02-28T17:33:43.382Z,73.37
2019-02-28T17:36:12.543Z,78.30
2019-02-28T17:38:41.297Z,74.67
2019-02-28T17:41:11.116Z,84.87
2019-02-28T17:43:40.116Z,75.93
2019-02-28T17:46:10.341Z,82.57
2019-02-28T17:49:18.438Z,86.17
2019-02-28T17:52:02.701Z,81.57
2019-02-28T17:55:14.979Z,90.77
2019-02-28T17:58:39.085Z,91.80
2019-02-28T18:01:48.949Z,104.33
2019-02-28T18:04:39.017Z,96.10
2019-02-28T18:07:29.875Z,92.13
2019-02-28T18:10:29.877Z,90.33
2019-02-28T18:13:20.116Z,99.13
2019-02-28T18:16:28.601Z,107.43
2019-02-28T18:19:21.605Z,120.67
2019-02-28T18:22:12.869Z,99.07
2019-02-28T18:25:04.473Z,122.30
2019-02-28T18:28:13.233Z,106.57
2019-02-28T18:31:13.170Z,95.63
2019-02-28T18:34:02.206Z,88.67
2019-02-28T18:36:31.678Z,102.80
2019-02-28T18:39:00.433Z,107.13
2019-02-28T18:41:29.098Z,94.27
2019-02-28T18:44:00.068Z,113.57
2019-02-28T18:46:29.559Z,113.77
2019-02-28T18:48:58.614Z,123.20
2019-02-28T18:51:27.281Z,126.50
2019-02-28T18:53:56.090Z,117.67
2019-02-28T18:56:24.759Z,113.40
2019-02-28T18:58:53.446Z,109.97
2019-02-28T19:01:22.188Z,108.00
2019-02-28T19:03:50.885Z,115.70
2019-02-28T19:06:19.560Z,111.10
2019-02-28T19:08:48.248Z,114.27
2019-02-28T19:11:16.964Z,106.13
2019-02-28T19:13:45.618Z,110.57
2019-02-28T19:16:15.300Z,121.50
2019-02-28T19:18:44.304Z,112.67
2019-02-28T19:21:12.948Z,114.43
2019-02-28T19:23:41.604Z,110.57
2019-02-28T19:26:10.304Z,109.20
2019-02-28T19:28:38.949Z,109.20
2019-02-28T19:31:07.594Z,105.80
2019-02-28T19:33:36.252Z,108.53
2019-02-28T19:36:04.887Z,104.07
2019-02-28T19:38:33.553Z,106.83
2019-02-28T19:41:02.187Z,102.97
2019-02-28T19:43:30.843Z,109.10
2019-02-28T19:45:59.484Z,101.50
2019-02-28T19:48:28.132Z,108.67
2019-02-28T19:50:56.788Z,91.23
2019-02-28T19:53:25.425Z,102.47
2019-02-28T19:55:54.156Z,108.30
2019-02-28T19:58:22.804Z,100.30
2019-02-28T20:00:52.100Z,112.63
2019-02-28T20:03:20.957Z,114.27
2019-02-28T20:05:49.700Z,104.40
2019-02-28T20:08:18.339Z,101.43
2019-02-28T20:10:47.239Z,106.97
2019-02-28T20:13:16.016Z,103.43
2019-02-28T20:15:44.739Z,111.07
2019-02-28T20:18:13.395Z,106.33
2019-02-28T20:20:42.232Z,109.77
2019-02-28T20:23:10.884Z,100.20
2019-02-28T20:25:39.527Z,107.77
2019-02-28T20:28:08.181Z,109.80
2019-02-28T20:30:36.980Z,114.87
2019-02-28T20:33:05.696Z,104.70
2019-02-28T20:35:34.523Z,105.13
2019-02-28T20:38:03.617Z,111.07
2019-02-28T20:40:32.348Z,102.13
2019-02-28T20:43:01.059Z,106.00
2019-02-28T20:45:29.712Z,106.37
2019-02-28T20:47:58.350Z,93.50
2019-02-28T20:50:29.908Z,96.03
2019-02-28T20:52:58.589Z,98.93
2019-02-28T20:55:27.272Z,93.97
2019-02-28T20:57:55.944Z,85.97
2019-02-28T21:00:26.152Z,100.93
2019-02-28T21:02:54.901Z,101.03
2019-02-28T21:05:23.685Z,102.13
2019-02-28T21:07:52.428Z,98.13
2019-02-28T21:10:21.176Z,96.07
2019-02-28T21:12:49.926Z,91.00
2019-02-28T21:15:18.677Z,88.30
2019-02-28T21:17:47.334Z,90.23
2019-02-28T21:20:16.033Z,87.63
2019-02-28T21:22:44.721Z,91.40
2019-02-28T21:25:13.445Z,82.43
2019-02-28T21:27:42.105Z,91.83
2019-02-28T21:30:18.497Z,85.73
2019-02-28T21:32:47.152Z,80.67
2019-02-28T21:35:16.617Z,76.30
2019-02-28T21:37:45.975Z,79.53
2019-02-28T21:40:15.897Z,79.27
2019-02-28T21:42:44.564Z,83.60
2019-02-28T21:45:15.427Z,82.47
2019-02-28T21:47:44.086Z,84.33
